Terminal Aerodrome Forecast
Issued by NWS

Home | Current Version | Previous Version | Text Only | Print | Product List | Glossary On
Versions: 1 2 3 4 5 6 7 8 9 10 11 12 13 14 15 16
679
FTUS45 KFGZ 251720
TAFSEZ
TAF
KSEZ 251720Z 2518/2618 21010KT P6SM SCT080
      TEMPO 2521/2601 VRB15G25KT 5SM TSRA BKN060CB
     FM260300 04008KT P6SM SCT060=

USA.gov is the U.S. government's official web portal to all federal, state and local government web resources and services.